MincHOS Sexto — EAVW — position and weather

sailwx.info

Track history (hours):
 
Tides and Currents Weather Stations Pressure Air Temp Water Temp Dewpoint Dewpoint Depression Visibility Wind Speed Wind Dir Waves Ship Positions

MincHOS Sexto

Last reported at 2014-Nov-15 03:32 UTC. Time now 2014-Nov-22 00:26 UTC.
Position N 43°33' W 005°42'.

Length 30 m; draft 3 m.

Type: Fishing. MMSI: 224204490.

Date/timePositionNaut miles runAvg speedWind from/ knotsBaromVisibWave heightAir tempDewpointWater temp
2014-Nov-15 03:32N 43°33' W 005°42'0 0.0
2014-Nov-15 02:32N 43°33' W 005°42'0 0.0
2014-Nov-15 01:33N 43°33' W 005°42'0 0.0
2014-Nov-15 00:33N 43°33' W 005°42'0 0.0
2014-Nov-14 23:33N 43°33' W 005°42'0 0.0
2014-Nov-14 22:33N 43°33' W 005°42'0 0.0
2014-Nov-14 21:33N 43°33' W 005°42'0 0.0
2014-Nov-14 20:33N 43°33' W 005°42'0 0.0
2014-Nov-14 19:33N 43°33' W 005°42'0 0.0
2014-Nov-14 18:33N 43°33' W 005°42'0 0.0
2014-Nov-14 17:33N 43°33' W 005°42'9 8.9
2014-Nov-14 16:34N 43°40' W 005°34'17 7.0
2014-Nov-14 14:06N 43°50' W 005°14'25 0.7
2014-Nov-13 02:05N 43°34' W 005°41'1 0.1
2014-Nov-12 16:05N 43°33' W 005°42'0 0.0
2014-Nov-12 14:17N 43°33' W 005°42'0 0.0
2014-Nov-12 13:24N 43°33' W 005°42'0 0.0
2014-Nov-12 12:30N 43°33' W 005°42'0 0.0
2014-Nov-12 08:19N 43°33' W 005°42'24 7.8
2014-Nov-12 05:16N 43°36' W 005°09'19 0.6
2014-Nov-10 23:31N 43°35' W 005°35'5 0.9
2014-Nov-10 18:27N 43°33' W 005°42'0 0.1
2014-Nov-10 17:09N 43°33' W 005°42'2 2.8
2014-Nov-10 16:33N 43°34' W 005°40'1010.1
2014-Nov-10 15:33N 43°37' W 005°26'16 1.3
2014-Nov-10 03:31N 43°50' W 005°12'18 7.2
2014-Nov-10 01:05N 43°40' W 005°32'6 9.6
2014-Nov-10 00:29N 43°36' W 005°38'4 4.0
2014-Nov-09 23:33N 43°33' W 005°42'0 0.0
2014-Nov-09 22:33N 43°33' W 005°42'0 0.0
2014-Nov-09 19:16N 43°33' W 005°42'0 0.0
2014-Nov-09 17:26N 43°33' W 005°42'0 0.0
2014-Nov-09 16:33N 43°33' W 005°42'0 0.0
2014-Nov-09 15:33N 43°33' W 005°42'0 0.0
2014-Nov-09 14:33N 43°33' W 005°42'0 0.0
2014-Nov-09 13:29N 43°33' W 005°42'0 0.0
2014-Nov-09 12:31N 43°33' W 005°42'0 0.0
2014-Nov-09 11:31N 43°33' W 005°42'0 0.0
2014-Nov-09 10:31N 43°33' W 005°42'0 0.0
2014-Nov-09 09:31N 43°33' W 005°42'0 0.0
2014-Nov-09 08:32N 43°33' W 005°42'0 0.0
2014-Nov-09 07:33N 43°33' W 005°42'0 0.0
2014-Nov-09 06:33N 43°33' W 005°42'0 0.0
2014-Nov-09 05:33N 43°33' W 005°42'0 0.0
2014-Nov-09 04:30N 43°33' W 005°42'0 0.0
2014-Nov-09 03:33N 43°33' W 005°42'0 0.0
2014-Nov-09 02:30N 43°33' W 005°42'0 0.0
2014-Nov-09 01:32N 43°33' W 005°42'0 0.0
2014-Nov-09 00:33N 43°33' W 005°42'0 0.0
2014-Nov-08 23:33N 43°33' W 005°42'0 0.0
2014-Nov-08 22:33N 43°33' W 005°42'0 0.0
2014-Nov-08 21:32N 43°33' W 005°42'0 0.0
2014-Nov-08 20:33N 43°33' W 005°42'0 0.0
2014-Nov-08 19:33N 43°33' W 005°42'0 0.0
2014-Nov-08 18:33N 43°33' W 005°42'0 0.0
2014-Nov-08 17:33N 43°33' W 005°42'0 0.0
2014-Nov-08 16:33N 43°33' W 005°42'0 0.0
2014-Nov-08 15:33N 43°33' W 005°42'0 0.0
2014-Nov-08 14:33N 43°33' W 005°42'0 0.0
2014-Nov-08 13:33N 43°33' W 005°42'0 0.0
2014-Nov-08 12:33N 43°33' W 005°42'0 0.0
2014-Nov-08 11:31N 43°33' W 005°42'0 0.0
2014-Nov-08 10:33N 43°33' W 005°42'0 0.0
2014-Nov-08 09:33N 43°33' W 005°42'0 0.0
2014-Nov-08 08:33N 43°33' W 005°42'0 0.0
2014-Nov-08 07:33N 43°33' W 005°42'0 0.0
2014-Nov-08 06:33N 43°33' W 005°42'0 0.0
2014-Nov-08 05:33N 43°33' W 005°42'0 0.0
2014-Nov-08 04:33N 43°33' W 005°42'0 0.0
2014-Nov-08 03:33N 43°33' W 005°42'0 0.0
2014-Nov-08 02:32N 43°33' W 005°42'0 0.0
2014-Nov-08 01:33N 43°33' W 005°42'0 0.0
2014-Nov-08 00:33N 43°33' W 005°42'0 0.0
2014-Nov-07 23:30N 43°33' W 005°42'0 0.0
2014-Nov-07 22:32N 43°33' W 005°42'0 0.0
2014-Nov-07 21:32N 43°33' W 005°42'0 0.0
2014-Nov-07 20:26N 43°33' W 005°42'0 0.0
2014-Nov-07 19:31N 43°33' W 005°42'0 0.0
2014-Nov-07 18:33N 43°33' W 005°42'0 0.0
2014-Nov-07 17:32N 43°33' W 005°42'0 0.0
2014-Nov-07 16:33N 43°33' W 005°42'0 0.0
2014-Nov-07 15:33N 43°33' W 005°42'0 0.0
2014-Nov-07 14:32N 43°33' W 005°42'0 0.0
2014-Nov-07 13:33N 43°33' W 005°42'0 0.0
2014-Nov-07 12:33N 43°33' W 005°42'0 0.0
2014-Nov-07 11:33N 43°33' W 005°42'0 0.0
2014-Nov-07 10:33N 43°33' W 005°42'0 0.0
2014-Nov-07 09:33N 43°33' W 005°42'0 0.0
2014-Nov-07 08:33N 43°33' W 005°42'0 0.0
2014-Nov-07 07:31N 43°33' W 005°42'0 0.0
2014-Nov-07 06:31N 43°33' W 005°42'0 0.0
2014-Nov-07 05:33N 43°33' W 005°42'0 0.0
2014-Nov-07 04:33N 43°33' W 005°42'0 0.0
2014-Nov-07 03:32N 43°33' W 005°42'0 0.0
2014-Nov-07 02:33N 43°33' W 005°42'0 0.0
2014-Nov-07 01:33N 43°33' W 005°42'0 0.0
2014-Nov-07 00:30N 43°33' W 005°42'0 0.0
2014-Nov-06 23:30N 43°33' W 005°42'0 0.0
2014-Nov-06 22:33N 43°33' W 005°42'0 0.0
2014-Nov-06 21:29N 43°33' W 005°42'0 0.0
2014-Nov-06 20:33N 43°33' W 005°42'0 0.0
2014-Nov-06 19:33N 43°33' W 005°42'0 0.0
2014-Nov-06 18:34N 43°33' W 005°42'0 0.1
2014-Nov-06 17:21N 43°33' W 005°42'0 0.2
2014-Nov-06 16:15N 43°33' W 005°42'710.2
2014-Nov-06 15:33N 43°36' W 005°32'19 1.2
2014-Nov-05 23:31N 43°52' W 005°20'17 2.7
2014-Nov-05 17:09N 43°36' W 005°12'  
Track history (hours):
 
Tides and Currents Weather Stations Pressure Air Temp Water Temp Dewpoint Dewpoint Depression Visibility Wind Speed Wind Dir Waves Ship Positions

MincHOS Sexto

Last reported at 2014-Nov-15 03:32 UTC. Time now 2014-Nov-22 00:26 UTC.
Position N 43°33' W 005°42'.

Length 30 m; draft 3 m.

Type: Fishing. MMSI: 224204490.

Date/timePositionNaut miles runAvg speedWind from/ knotsBaromVisibWave heightAir tempDewpointWater temp
2014-Nov-15 03:32N 43°33' W 005°42'0 0.0
2014-Nov-15 02:32N 43°33' W 005°42'0 0.0
2014-Nov-15 01:33N 43°33' W 005°42'0 0.0
2014-Nov-15 00:33N 43°33' W 005°42'0 0.0
2014-Nov-14 23:33N 43°33' W 005°42'0 0.0
2014-Nov-14 22:33N 43°33' W 005°42'0 0.0
2014-Nov-14 21:33N 43°33' W 005°42'0 0.0
2014-Nov-14 20:33N 43°33' W 005°42'0 0.0
2014-Nov-14 19:33N 43°33' W 005°42'0 0.0
2014-Nov-14 18:33N 43°33' W 005°42'0 0.0
2014-Nov-14 17:33N 43°33' W 005°42'9 8.9
2014-Nov-14 16:34N 43°40' W 005°34'17 7.0
2014-Nov-14 14:06N 43°50' W 005°14'25 0.7
2014-Nov-13 02:05N 43°34' W 005°41'1 0.1
2014-Nov-12 16:05N 43°33' W 005°42'0 0.0
2014-Nov-12 14:17N 43°33' W 005°42'0 0.0
2014-Nov-12 13:24N 43°33' W 005°42'0 0.0
2014-Nov-12 12:30N 43°33' W 005°42'0 0.0
2014-Nov-12 08:19N 43°33' W 005°42'24 7.8
2014-Nov-12 05:16N 43°36' W 005°09'19 0.6
2014-Nov-10 23:31N 43°35' W 005°35'5 0.9
2014-Nov-10 18:27N 43°33' W 005°42'0 0.1
2014-Nov-10 17:09N 43°33' W 005°42'2 2.8
2014-Nov-10 16:33N 43°34' W 005°40'1010.1
2014-Nov-10 15:33N 43°37' W 005°26'16 1.3
2014-Nov-10 03:31N 43°50' W 005°12'18 7.2
2014-Nov-10 01:05N 43°40' W 005°32'6 9.6
2014-Nov-10 00:29N 43°36' W 005°38'4 4.0
2014-Nov-09 23:33N 43°33' W 005°42'0 0.0
2014-Nov-09 22:33N 43°33' W 005°42'0 0.0
2014-Nov-09 19:16N 43°33' W 005°42'0 0.0
2014-Nov-09 17:26N 43°33' W 005°42'0 0.0
2014-Nov-09 16:33N 43°33' W 005°42'0 0.0
2014-Nov-09 15:33N 43°33' W 005°42'0 0.0
2014-Nov-09 14:33N 43°33' W 005°42'0 0.0
2014-Nov-09 13:29N 43°33' W 005°42'0 0.0
2014-Nov-09 12:31N 43°33' W 005°42'0 0.0
2014-Nov-09 11:31N 43°33' W 005°42'0 0.0
2014-Nov-09 10:31N 43°33' W 005°42'0 0.0
2014-Nov-09 09:31N 43°33' W 005°42'0 0.0
2014-Nov-09 08:32N 43°33' W 005°42'0 0.0
2014-Nov-09 07:33N 43°33' W 005°42'0 0.0
2014-Nov-09 06:33N 43°33' W 005°42'0 0.0
2014-Nov-09 05:33N 43°33' W 005°42'0 0.0
2014-Nov-09 04:30N 43°33' W 005°42'0 0.0
2014-Nov-09 03:33N 43°33' W 005°42'0 0.0
2014-Nov-09 02:30N 43°33' W 005°42'0 0.0
2014-Nov-09 01:32N 43°33' W 005°42'0 0.0
2014-Nov-09 00:33N 43°33' W 005°42'0 0.0
2014-Nov-08 23:33N 43°33' W 005°42'0 0.0
2014-Nov-08 22:33N 43°33' W 005°42'0 0.0
2014-Nov-08 21:32N 43°33' W 005°42'0 0.0
2014-Nov-08 20:33N 43°33' W 005°42'0 0.0
2014-Nov-08 19:33N 43°33' W 005°42'0 0.0
2014-Nov-08 18:33N 43°33' W 005°42'0 0.0
2014-Nov-08 17:33N 43°33' W 005°42'0 0.0
2014-Nov-08 16:33N 43°33' W 005°42'0 0.0
2014-Nov-08 15:33N 43°33' W 005°42'0 0.0
2014-Nov-08 14:33N 43°33' W 005°42'0 0.0
2014-Nov-08 13:33N 43°33' W 005°42'0 0.0
2014-Nov-08 12:33N 43°33' W 005°42'0 0.0
2014-Nov-08 11:31N 43°33' W 005°42'0 0.0
2014-Nov-08 10:33N 43°33' W 005°42'0 0.0
2014-Nov-08 09:33N 43°33' W 005°42'0 0.0
2014-Nov-08 08:33N 43°33' W 005°42'0 0.0
2014-Nov-08 07:33N 43°33' W 005°42'0 0.0
2014-Nov-08 06:33N 43°33' W 005°42'0 0.0
2014-Nov-08 05:33N 43°33' W 005°42'0 0.0
2014-Nov-08 04:33N 43°33' W 005°42'0 0.0
2014-Nov-08 03:33N 43°33' W 005°42'0 0.0
2014-Nov-08 02:32N 43°33' W 005°42'0 0.0
2014-Nov-08 01:33N 43°33' W 005°42'0 0.0
2014-Nov-08 00:33N 43°33' W 005°42'0 0.0
2014-Nov-07 23:30N 43°33' W 005°42'0 0.0
2014-Nov-07 22:32N 43°33' W 005°42'0 0.0
2014-Nov-07 21:32N 43°33' W 005°42'0 0.0
2014-Nov-07 20:26N 43°33' W 005°42'0 0.0
2014-Nov-07 19:31N 43°33' W 005°42'0 0.0
2014-Nov-07 18:33N 43°33' W 005°42'0 0.0
2014-Nov-07 17:32N 43°33' W 005°42'0 0.0
2014-Nov-07 16:33N 43°33' W 005°42'0 0.0
2014-Nov-07 15:33N 43°33' W 005°42'0 0.0
2014-Nov-07 14:32N 43°33' W 005°42'0 0.0
2014-Nov-07 13:33N 43°33' W 005°42'0 0.0
2014-Nov-07 12:33N 43°33' W 005°42'0 0.0
2014-Nov-07 11:33N 43°33' W 005°42'0 0.0
2014-Nov-07 10:33N 43°33' W 005°42'0 0.0
2014-Nov-07 09:33N 43°33' W 005°42'0 0.0
2014-Nov-07 08:33N 43°33' W 005°42'0 0.0
2014-Nov-07 07:31N 43°33' W 005°42'0 0.0
2014-Nov-07 06:31N 43°33' W 005°42'0 0.0
2014-Nov-07 05:33N 43°33' W 005°42'0 0.0
2014-Nov-07 04:33N 43°33' W 005°42'0 0.0
2014-Nov-07 03:32N 43°33' W 005°42'0 0.0
2014-Nov-07 02:33N 43°33' W 005°42'0 0.0
2014-Nov-07 01:33N 43°33' W 005°42'0 0.0
2014-Nov-07 00:30N 43°33' W 005°42'0 0.0
2014-Nov-06 23:30N 43°33' W 005°42'0 0.0
2014-Nov-06 22:33N 43°33' W 005°42'0 0.0
2014-Nov-06 21:29N 43°33' W 005°42'0 0.0
2014-Nov-06 20:33N 43°33' W 005°42'0 0.0
2014-Nov-06 19:33N 43°33' W 005°42'0 0.0
2014-Nov-06 18:34N 43°33' W 005°42'0 0.1
2014-Nov-06 17:21N 43°33' W 005°42'0 0.2
2014-Nov-06 16:15N 43°33' W 005°42'710.2
2014-Nov-06 15:33N 43°36' W 005°32'19 1.2
2014-Nov-05 23:31N 43°52' W 005°20'17 2.7
2014-Nov-05 17:09N 43°36' W 005°12'  

Dump ship's entire track history